createdAt,value
2022-12-27T00:01:55.286Z,3.72
2022-12-27T00:04:25.744Z,3.72
2022-12-27T00:06:54.404Z,3.67
2022-12-27T00:09:23.192Z,3.64
2022-12-27T00:11:58.079Z,3.64
2022-12-27T00:14:28.989Z,3.62
2022-12-27T00:16:57.634Z,3.63
2022-12-27T00:19:26.388Z,3.66
2022-12-27T00:21:54.934Z,3.65
2022-12-27T00:24:23.813Z,3.68
2022-12-27T00:26:53.925Z,3.69
2022-12-27T00:29:23.149Z,3.48
2022-12-27T00:31:52.081Z,3.33
2022-12-27T00:34:20.766Z,3.27
2022-12-27T00:36:49.426Z,3.20
2022-12-27T00:39:18.023Z,3.13
2022-12-27T00:41:48.037Z,3.08
2022-12-27T00:44:18.329Z,3.10
2022-12-27T00:46:46.975Z,3.11
2022-12-27T00:49:15.624Z,3.12
2022-12-27T00:51:44.843Z,3.08
2022-12-27T00:54:13.542Z,3.02
2022-12-27T00:56:42.215Z,3.06
2022-12-27T00:59:12.287Z,3.04
2022-12-27T01:01:43.608Z,2.87
2022-12-27T01:04:13.592Z,2.76
2022-12-27T01:06:42.629Z,2.72
2022-12-27T01:09:11.254Z,2.72
2022-12-27T01:11:41.107Z,2.68
2022-12-27T01:14:09.719Z,2.65
2022-12-27T01:16:38.750Z,2.43
2022-12-27T01:19:09.121Z,2.23
2022-12-27T01:21:37.762Z,2.05
2022-12-27T01:24:07.511Z,1.99
2022-12-27T01:26:36.110Z,2.05
2022-12-27T01:29:04.748Z,2.09
2022-12-27T01:31:33.433Z,2.05
2022-12-27T01:34:02.096Z,2.01
2022-12-27T01:36:32.418Z,2.00
2022-12-27T01:39:01.214Z,1.98
2022-12-27T01:41:48.510Z,1.95
2022-12-27T01:44:56.620Z,1.85
2022-12-27T01:47:35.487Z,1.84
2022-12-27T01:50:12.819Z,1.85
2022-12-27T01:52:46.083Z,1.75
2022-12-27T01:55:19.403Z,1.65
2022-12-27T01:57:49.094Z,1.61
2022-12-27T02:00:17.728Z,1.51
2022-12-27T02:02:46.474Z,1.47
2022-12-27T02:05:16.132Z,1.39
2022-12-27T02:07:50.680Z,1.38
2022-12-27T02:10:19.435Z,1.40
2022-12-27T02:12:49.379Z,1.34
2022-12-27T02:15:18.076Z,1.31
2022-12-27T02:17:46.684Z,1.29
2022-12-27T02:20:16.998Z,1.19
2022-12-27T02:23:40.102Z,1.20
2022-12-27T02:26:37.390Z,1.14
2022-12-27T02:29:38.216Z,1.12
2022-12-27T02:32:08.482Z,1.09
2022-12-27T02:34:42.702Z,1.09
2022-12-27T02:37:11.843Z,0.97
2022-12-27T02:39:42.861Z,0.92
2022-12-27T02:42:29.727Z,0.91
2022-12-27T02:45:13.922Z,0.89
2022-12-27T02:47:59.901Z,0.88
2022-12-27T02:50:48.695Z,0.87
2022-12-27T02:53:19.829Z,0.82
2022-12-27T02:56:12.636Z,0.79
2022-12-27T02:58:53.317Z,0.69
2022-12-27T03:01:43.755Z,0.65
2022-12-27T03:04:33.025Z,0.69
2022-12-27T03:07:14.786Z,0.67
2022-12-27T03:10:04.502Z,0.70
2022-12-27T03:12:59.414Z,0.70
2022-12-27T03:15:53.242Z,0.74
2022-12-27T03:18:30.245Z,0.73
2022-12-27T03:21:16.490Z,0.73
2022-12-27T03:24:03.086Z,0.63
2022-12-27T03:26:33.299Z,0.64
2022-12-27T03:29:19.129Z,0.62
2022-12-27T03:32:07.048Z,0.60
2022-12-27T03:34:40.108Z,0.57
2022-12-27T03:37:28.145Z,0.53
2022-12-27T03:40:06.996Z,0.52
2022-12-27T03:42:54.862Z,0.51
2022-12-27T03:45:43.554Z,0.53
2022-12-27T03:48:12.293Z,0.49
2022-12-27T03:50:45.248Z,0.41
2022-12-27T03:53:16.063Z,0.36
2022-12-27T03:55:44.650Z,0.43
2022-12-27T03:58:13.440Z,0.36
2022-12-27T04:00:42.027Z,0.47
2022-12-27T04:03:10.997Z,0.41
2022-12-27T04:05:39.915Z,0.36
2022-12-27T04:08:27.253Z,0.36
2022-12-27T04:11:12.983Z,0.30
2022-12-27T04:13:58.942Z,0.28
2022-12-27T04:16:45.105Z,0.34
2022-12-27T04:19:31.380Z,0.32
2022-12-27T04:22:17.092Z,0.26
2022-12-27T04:25:04.531Z,0.23
2022-12-27T04:27:50.540Z,0.23
2022-12-27T04:30:37.001Z,0.20
2022-12-27T04:33:22.716Z,0.18
2022-12-27T04:35:51.389Z,0.22
2022-12-27T04:38:20.054Z,0.14
2022-12-27T04:41:07.869Z,0.14
2022-12-27T04:43:54.119Z,0.18
2022-12-27T04:46:41.504Z,0.12
2022-12-27T04:49:29.977Z,0.09
2022-12-27T04:52:15.676Z,0.11
2022-12-27T04:54:59.957Z,0.08
2022-12-27T04:57:30.311Z,0.17
2022-12-27T05:00:12.694Z,0.13
2022-12-27T05:02:41.585Z,0.00
2022-12-27T05:05:11.068Z,0.04
2022-12-27T05:07:57.117Z,0.07
2022-12-27T05:10:42.903Z,0.05
2022-12-27T05:13:31.431Z,0.03
2022-12-27T05:16:00.147Z,0.02
2022-12-27T05:18:28.891Z,0.03
2022-12-27T05:20:57.492Z,0.02
2022-12-27T05:23:43.672Z,-0.01
2022-12-27T05:26:12.329Z,0.03
2022-12-27T05:28:42.733Z,-0.05
2022-12-27T05:31:11.509Z,-0.07
2022-12-27T05:33:40.148Z,-0.06
2022-12-27T05:36:10.203Z,-0.02
2022-12-27T05:38:39.235Z,-0.08
2022-12-27T05:41:08.131Z,-0.05
2022-12-27T05:43:36.916Z,-0.03
2022-12-27T05:46:07.608Z,-0.02
2022-12-27T05:48:36.332Z,-0.03
2022-12-27T05:51:08.897Z,-0.02
2022-12-27T05:53:37.695Z,0.00
2022-12-27T05:56:06.620Z,0.03
2022-12-27T05:58:35.596Z,0.06
2022-12-27T06:01:10.481Z,-0.01
2022-12-27T06:03:39.357Z,0.02
2022-12-27T06:06:08.736Z,-0.03
2022-12-27T06:08:37.729Z,0.02
2022-12-27T06:11:08.456Z,-0.05
2022-12-27T06:13:37.257Z,-0.04
2022-12-27T06:16:06.747Z,-0.04
2022-12-27T06:18:38.339Z,-0.01
2022-12-27T06:21:08.125Z,-0.04
2022-12-27T06:23:37.607Z,0.00
2022-12-27T06:26:06.879Z,-0.03
2022-12-27T06:28:35.475Z,-0.08
2022-12-27T06:31:04.163Z,-0.02
2022-12-27T06:33:32.888Z,0.00
2022-12-27T06:36:07.223Z,-0.04
2022-12-27T06:38:35.829Z,-0.04
2022-12-27T06:41:04.640Z,-0.04
2022-12-27T06:43:33.268Z,-0.02
2022-12-27T06:46:03.210Z,-0.03
2022-12-27T06:48:32.262Z,-0.01
2022-12-27T06:51:02.849Z,-0.07
2022-12-27T06:53:31.503Z,-0.04
2022-12-27T06:56:00.281Z,-0.02
2022-12-27T06:58:28.946Z,0.00
2022-12-27T07:00:57.625Z,-0.03
2022-12-27T07:03:26.338Z,-0.03
2022-12-27T07:05:55.286Z,-0.02
2022-12-27T07:08:25.406Z,0.05
2022-12-27T07:10:54.049Z,0.14
2022-12-27T07:13:22.709Z,0.17
2022-12-27T07:15:51.595Z,0.17
2022-12-27T07:18:20.245Z,0.18
2022-12-27T07:20:48.963Z,0.23
2022-12-27T07:23:19.515Z,0.23
2022-12-27T07:25:49.985Z,0.26
2022-12-27T07:28:18.642Z,0.26
2022-12-27T07:30:47.358Z,0.30
2022-12-27T07:33:16.080Z,0.34
2022-12-27T07:35:45.321Z,0.40
2022-12-27T07:38:14.019Z,0.40
2022-12-27T07:40:43.268Z,0.40
2022-12-27T07:43:13.654Z,0.48
2022-12-27T07:45:42.453Z,0.53
2022-12-27T07:48:11.228Z,0.58
2022-12-27T07:50:39.844Z,0.57
2022-12-27T07:53:08.551Z,0.62
2022-12-27T07:55:37.184Z,0.62
2022-12-27T07:58:06.100Z,0.65
2022-12-27T08:00:36.200Z,0.64
2022-12-27T08:03:05.018Z,0.67
2022-12-27T08:05:33.701Z,0.70
2022-12-27T08:08:02.756Z,0.74
2022-12-27T08:10:34.142Z,0.77
2022-12-27T08:13:02.777Z,0.79
2022-12-27T08:15:31.476Z,0.80
2022-12-27T08:18:01.660Z,0.79
2022-12-27T08:20:31.008Z,0.83
2022-12-27T08:22:59.929Z,0.85
2022-12-27T08:25:28.932Z,0.89
2022-12-27T08:28:04.567Z,0.93
2022-12-27T08:30:33.560Z,0.92
2022-12-27T08:33:04.374Z,0.93
2022-12-27T08:35:52.083Z,0.94
2022-12-27T08:38:22.010Z,0.96
2022-12-27T08:40:50.701Z,1.01
2022-12-27T08:43:19.354Z,1.06
2022-12-27T08:45:48.633Z,1.05
2022-12-27T08:48:18.753Z,1.09
2022-12-27T08:50:47.451Z,1.09
2022-12-27T08:53:16.064Z,1.13
2022-12-27T08:55:44.731Z,1.15
2022-12-27T08:58:16.355Z,1.14
2022-12-27T09:00:45.589Z,1.16
2022-12-27T09:03:14.596Z,1.17
2022-12-27T09:05:44.709Z,1.17
2022-12-27T09:08:13.501Z,1.16
2022-12-27T09:10:42.120Z,1.14
2022-12-27T09:13:10.774Z,1.20
2022-12-27T09:15:39.913Z,1.25
2022-12-27T09:18:08.940Z,1.29
2022-12-27T09:20:38.397Z,1.30
2022-12-27T09:23:08.538Z,1.35
2022-12-27T09:25:37.216Z,1.38
2022-12-27T09:28:07.148Z,1.38
2022-12-27T09:30:35.828Z,1.40
2022-12-27T09:33:04.456Z,1.44
2022-12-27T09:35:38.417Z,1.48
2022-12-27T09:38:09.371Z,1.51
2022-12-27T09:40:38.633Z,1.56
2022-12-27T09:43:19.497Z,1.56
2022-12-27T09:45:50.147Z,1.58
2022-12-27T09:48:26.188Z,1.55
2022-12-27T09:50:59.645Z,1.53
2022-12-27T09:53:33.326Z,1.55
2022-12-27T09:56:02.315Z,1.59
2022-12-27T09:58:40.774Z,1.74
2022-12-27T10:01:25.736Z,1.96
2022-12-27T10:03:54.535Z,2.14
2022-12-27T10:06:36.723Z,2.13
2022-12-27T10:09:13.584Z,2.23
2022-12-27T10:11:45.162Z,2.31
2022-12-27T10:14:20.563Z,2.42
2022-12-27T10:16:52.017Z,2.44
2022-12-27T10:19:26.673Z,2.51
2022-12-27T10:22:05.577Z,2.59
2022-12-27T10:24:39.782Z,2.64
2022-12-27T10:27:14.801Z,2.67
2022-12-27T10:29:44.019Z,2.70
2022-12-27T10:32:14.331Z,2.73
2022-12-27T10:34:43.462Z,2.78
2022-12-27T10:37:15.838Z,2.86
2022-12-27T10:39:46.911Z,2.95
2022-12-27T10:42:32.242Z,2.89
2022-12-27T10:45:32.742Z,2.90
2022-12-27T10:48:15.123Z,2.79
2022-12-27T10:50:50.601Z,2.77
2022-12-27T10:53:37.015Z,2.80
2022-12-27T10:56:12.529Z,2.89
2022-12-27T10:58:42.597Z,2.84
2022-12-27T11:01:19.874Z,2.80
2022-12-27T11:03:48.650Z,2.81
2022-12-27T11:06:28.255Z,2.81
2022-12-27T11:08:56.941Z,2.84
2022-12-27T11:11:28.335Z,2.83
2022-12-27T11:14:00.052Z,2.81
2022-12-27T11:16:30.405Z,2.83
2022-12-27T11:19:00.268Z,2.81
2022-12-27T11:21:30.019Z,2.82
2022-12-27T11:23:59.622Z,2.80
2022-12-27T11:26:31.261Z,2.76
2022-12-27T11:29:02.059Z,2.71
2022-12-27T11:31:37.702Z,2.73
2022-12-27T11:34:13.057Z,2.70
2022-12-27T11:36:43.262Z,2.63
2022-12-27T11:39:33.586Z,2.60
2022-12-27T11:42:03.915Z,2.57
2022-12-27T11:44:34.367Z,2.56
2022-12-27T11:47:05.661Z,2.51
2022-12-27T11:49:39.400Z,2.56
2022-12-27T11:52:24.804Z,2.57
2022-12-27T11:55:40.631Z,2.61
2022-12-27T11:58:31.060Z,2.70
2022-12-27T12:01:05.252Z,2.73
2022-12-27T12:03:47.773Z,2.78
2022-12-27T12:06:18.300Z,2.81
2022-12-27T12:09:07.193Z,2.84
2022-12-27T12:11:54.623Z,2.84
2022-12-27T12:14:53.487Z,2.83
2022-12-27T12:17:39.305Z,2.84
2022-12-27T12:20:34.962Z,2.93
2022-12-27T12:23:10.017Z,3.00
2022-12-27T12:26:13.359Z,2.98
2022-12-27T12:29:08.902Z,3.01
2022-12-27T12:31:55.596Z,3.04
2022-12-27T12:34:43.897Z,3.06
2022-12-27T12:37:21.167Z,3.07
2022-12-27T12:40:01.296Z,3.07
2022-12-27T12:42:32.175Z,3.08
2022-12-27T12:45:36.713Z,3.10
2022-12-27T12:48:21.265Z,3.10
2022-12-27T12:51:08.733Z,3.06
2022-12-27T12:53:51.817Z,3.03
2022-12-27T12:56:43.548Z,2.98
2022-12-27T12:59:19.986Z,2.91
2022-12-27T13:01:55.073Z,2.86
2022-12-27T13:04:35.619Z,2.78
2022-12-27T13:07:37.768Z,2.73
2022-12-27T13:10:44.507Z,2.65
2022-12-27T13:13:16.295Z,2.61
2022-12-27T13:15:58.274Z,2.57
2022-12-27T13:18:31.052Z,2.55
2022-12-27T13:21:10.651Z,2.54
2022-12-27T13:23:47.875Z,2.58
2022-12-27T13:26:22.453Z,2.58
2022-12-27T13:29:08.582Z,2.60
2022-12-27T13:31:48.886Z,2.64
2022-12-27T13:34:26.151Z,2.71
2022-12-27T13:37:08.867Z,2.78
2022-12-27T13:39:44.536Z,2.82
2022-12-27T13:42:37.309Z,2.88
2022-12-27T13:45:11.261Z,2.90
2022-12-27T13:47:59.649Z,2.93
2022-12-27T13:50:45.118Z,2.90
2022-12-27T13:53:39.325Z,2.88
2022-12-27T13:56:43.555Z,2.84
2022-12-27T13:59:11.061Z,2.83
2022-12-27T14:02:02.580Z,2.79
2022-12-27T14:04:44.460Z,2.74
2022-12-27T14:07:27.745Z,2.75
2022-12-27T14:10:16.515Z,2.78
2022-12-27T14:13:00.759Z,2.81
2022-12-27T14:15:40.455Z,2.84
2022-12-27T14:18:26.601Z,2.86
2022-12-27T14:21:02.566Z,2.84
2022-12-27T14:23:57.418Z,2.81
2022-12-27T14:27:14.411Z,2.72
2022-12-27T14:30:18.252Z,2.67
2022-12-27T14:33:31.838Z,2.64
2022-12-27T14:36:36.107Z,2.53
2022-12-27T14:39:37.279Z,2.45
2022-12-27T14:42:33.805Z,2.41
2022-12-27T14:45:29.230Z,2.31
2022-12-27T14:48:33.629Z,2.26
2022-12-27T14:55:04.518Z,2.13
2022-12-27T14:57:37.811Z,2.09
2022-12-27T15:03:41.091Z,1.98
2022-12-27T15:06:12.365Z,1.94
2022-12-27T15:08:48.371Z,1.87
2022-12-27T15:11:58.315Z,1.82
2022-12-27T15:14:39.223Z,1.74
2022-12-27T15:17:13.868Z,1.69
2022-12-27T15:20:03.728Z,1.64
2022-12-27T15:22:37.705Z,1.59
2022-12-27T15:25:08.678Z,1.55
2022-12-27T15:27:41.115Z,1.52
2022-12-27T15:30:21.061Z,1.54
2022-12-27T15:32:58.398Z,1.57
2022-12-27T15:35:42.560Z,1.56
2022-12-27T15:38:13.175Z,1.62
2022-12-27T15:40:54.040Z,1.62
2022-12-27T15:43:56.658Z,1.67
2022-12-27T15:46:50.784Z,1.72
2022-12-27T15:49:30.144Z,1.76
2022-12-27T15:52:00.589Z,1.82
2022-12-27T15:54:53.346Z,1.86
2022-12-27T15:57:32.672Z,1.86
2022-12-27T16:00:13.167Z,1.90
2022-12-27T16:02:53.650Z,1.92
2022-12-27T16:05:46.713Z,1.95
2022-12-27T16:08:35.574Z,1.96
2022-12-27T16:11:06.340Z,2.01
2022-12-27T16:13:42.782Z,2.03
2022-12-27T16:16:57.309Z,2.03
2022-12-27T16:20:08.174Z,2.00
2022-12-27T16:22:40.163Z,1.97
2022-12-27T16:25:31.927Z,1.92
2022-12-27T16:28:03.217Z,1.89
2022-12-27T16:30:41.145Z,1.84
2022-12-27T16:33:33.931Z,1.80
2022-12-27T16:36:20.196Z,1.74
2022-12-27T16:39:03.275Z,1.69
2022-12-27T16:41:43.678Z,1.63
2022-12-27T16:44:17.479Z,1.67
2022-12-27T16:46:56.050Z,1.64
2022-12-27T16:49:48.402Z,1.60
2022-12-27T16:52:45.404Z,1.63
2022-12-27T16:55:26.230Z,1.66
2022-12-27T16:57:57.466Z,1.69
2022-12-27T17:00:41.695Z,1.72
2022-12-27T17:03:29.961Z,1.71
2022-12-27T17:06:30.741Z,1.74
2022-12-27T17:08:47.960Z,1.73
2022-12-27T17:11:27.935Z,1.73
2022-12-27T17:13:58.180Z,1.71
2022-12-27T17:16:28.802Z,1.71
2022-12-27T17:18:58.719Z,1.69
2022-12-27T17:21:30.741Z,1.63
2022-12-27T17:24:01.814Z,1.61
2022-12-27T17:26:48.354Z,1.61
2022-12-27T17:29:37.640Z,1.56
2022-12-27T17:32:10.324Z,1.54
2022-12-27T17:34:44.192Z,1.57
2022-12-27T17:37:16.970Z,1.63
2022-12-27T17:39:56.506Z,1.65
2022-12-27T17:42:47.759Z,1.70
2022-12-27T17:45:21.950Z,1.73
2022-12-27T17:48:11.328Z,1.77
2022-12-27T17:50:41.653Z,1.80
2022-12-27T17:53:35.871Z,1.86
2022-12-27T17:56:37.191Z,1.90
2022-12-27T17:59:09.622Z,1.90
2022-12-27T18:01:40.661Z,1.90
2022-12-27T18:04:09.657Z,1.90
2022-12-27T18:06:39.994Z,1.94
2022-12-27T18:09:08.818Z,1.93
2022-12-27T18:11:37.495Z,1.90
2022-12-27T18:14:07.934Z,1.93
2022-12-27T18:16:40.132Z,1.93
2022-12-27T18:19:08.993Z,1.94
2022-12-27T18:21:37.745Z,1.92
2022-12-27T18:24:09.730Z,1.91
2022-12-27T18:26:39.143Z,1.95
2022-12-27T18:29:11.778Z,1.96
2022-12-27T18:31:43.565Z,1.94
2022-12-27T18:34:15.868Z,1.92
2022-12-27T18:36:47.425Z,1.89
2022-12-27T18:39:19.492Z,1.90
2022-12-27T18:41:49.947Z,1.88
2022-12-27T18:44:26.792Z,1.88
2022-12-27T18:46:57.729Z,1.86
2022-12-27T18:49:27.253Z,1.80
2022-12-27T18:51:56.325Z,1.79
2022-12-27T18:54:33.610Z,1.77
2022-12-27T18:57:03.048Z,1.74
2022-12-27T18:59:33.343Z,1.74
2022-12-27T19:02:02.945Z,1.73
2022-12-27T19:04:32.305Z,1.72
2022-12-27T19:07:09.921Z,1.71
2022-12-27T19:09:40.363Z,1.69
2022-12-27T19:12:18.648Z,1.74
2022-12-27T19:14:48.960Z,1.74
2022-12-27T19:17:19.390Z,1.77
2022-12-27T19:19:49.789Z,1.76
2022-12-27T19:22:31.662Z,1.78
2022-12-27T19:25:00.958Z,1.75
2022-12-27T19:27:29.654Z,1.80
2022-12-27T19:30:00.120Z,1.80
2022-12-27T19:32:32.660Z,1.82
2022-12-27T19:35:02.993Z,1.85
2022-12-27T19:37:32.117Z,1.82
2022-12-27T19:40:00.946Z,1.76
2022-12-27T19:42:30.586Z,1.73
2022-12-27T19:45:00.636Z,1.75
2022-12-27T19:47:31.525Z,1.75
2022-12-27T19:50:00.190Z,1.83
2022-12-27T19:52:28.989Z,1.80
2022-12-27T19:54:59.906Z,1.78
2022-12-27T19:57:28.902Z,1.80
2022-12-27T19:59:57.528Z,1.85
2022-12-27T20:02:27.995Z,1.87
2022-12-27T20:04:57.615Z,1.88
2022-12-27T20:07:26.476Z,1.82
2022-12-27T20:09:55.215Z,1.82
2022-12-27T20:12:23.875Z,1.82
2022-12-27T20:14:52.769Z,1.86
2022-12-27T20:17:21.481Z,1.88
2022-12-27T20:19:52.730Z,1.89
2022-12-27T20:22:21.501Z,1.86
2022-12-27T20:24:51.455Z,1.88
2022-12-27T20:27:24.026Z,1.87
2022-12-27T20:29:53.435Z,1.84
2022-12-27T20:32:22.132Z,1.83
2022-12-27T20:34:52.350Z,1.81
2022-12-27T20:37:24.554Z,1.80
2022-12-27T20:39:53.805Z,1.83
2022-12-27T20:42:23.943Z,1.83
2022-12-27T20:44:52.981Z,1.81
2022-12-27T20:47:21.710Z,1.79
2022-12-27T20:49:51.974Z,1.79
2022-12-27T20:52:24.288Z,1.77
2022-12-27T20:54:56.142Z,1.76
2022-12-27T20:57:25.188Z,1.79
2022-12-27T20:59:54.157Z,1.76
2022-12-27T21:02:23.001Z,1.76
2022-12-27T21:04:53.230Z,1.72
2022-12-27T21:07:21.943Z,1.69
2022-12-27T21:09:51.391Z,1.68
2022-12-27T21:12:20.036Z,1.66
2022-12-27T21:14:50.174Z,1.61
2022-12-27T21:17:19.017Z,1.59
2022-12-27T21:19:47.655Z,1.62
2022-12-27T21:22:18.069Z,1.60
2022-12-27T21:24:47.006Z,1.68
2022-12-27T21:27:15.689Z,1.66
2022-12-27T21:29:44.340Z,1.64
2022-12-27T21:32:13.021Z,1.72
2022-12-27T21:34:42.101Z,1.78
2022-12-27T21:37:13.511Z,1.82
2022-12-27T21:39:43.974Z,1.81
2022-12-27T21:42:12.716Z,1.85
2022-12-27T21:44:41.309Z,1.82
2022-12-27T21:47:09.911Z,1.78
2022-12-27T21:49:40.614Z,1.79
2022-12-27T21:52:09.235Z,1.76
2022-12-27T21:54:37.980Z,1.74
2022-12-27T21:57:08.097Z,1.70
2022-12-27T21:59:36.719Z,1.66
2022-12-27T22:02:05.514Z,1.64
2022-12-27T22:04:34.269Z,1.61
2022-12-27T22:07:03.228Z,1.67
2022-12-27T22:09:31.862Z,1.67
2022-12-27T22:12:00.552Z,1.66
2022-12-27T22:14:36.643Z,1.62
2022-12-27T22:17:06.348Z,1.64
2022-12-27T22:19:34.972Z,1.66
2022-12-27T22:22:03.742Z,1.68
2022-12-27T22:24:32.418Z,1.70
2022-12-27T22:27:01.060Z,1.73
2022-12-27T22:29:35.157Z,1.77
2022-12-27T22:32:04.865Z,1.80
2022-12-27T22:34:33.553Z,1.85
2022-12-27T22:37:02.198Z,1.91
2022-12-27T22:39:31.138Z,1.93
2022-12-27T22:41:59.799Z,1.94
2022-12-27T22:44:30.695Z,2.00
2022-12-27T22:47:25.717Z,2.05
2022-12-27T22:49:48.737Z,2.09
2022-12-27T22:52:17.396Z,2.14
2022-12-27T22:55:05.928Z,2.17
2022-12-27T22:57:35.643Z,2.15
2022-12-27T23:00:09.634Z,2.14
2022-12-27T23:02:38.411Z,2.10
2022-12-27T23:05:08.037Z,2.02
2022-12-27T23:08:05.261Z,1.99
2022-12-27T23:10:25.625Z,1.97
2022-12-27T23:12:54.292Z,1.98
2022-12-27T23:15:24.698Z,1.95
2022-12-27T23:17:53.920Z,1.88
2022-12-27T23:20:22.612Z,1.84
2022-12-27T23:22:51.277Z,1.84
2022-12-27T23:25:19.853Z,1.87
2022-12-27T23:27:48.553Z,1.85
2022-12-27T23:30:17.601Z,1.84
2022-12-27T23:32:47.765Z,1.84
2022-12-27T23:35:16.631Z,1.81
2022-12-27T23:37:45.273Z,1.74
2022-12-27T23:40:14.323Z,1.67
2022-12-27T23:42:42.978Z,1.66
2022-12-27T23:45:11.992Z,1.65
2022-12-27T23:47:40.584Z,1.61
2022-12-27T23:50:14.526Z,1.63
2022-12-27T23:52:47.771Z,1.66
2022-12-27T23:55:16.990Z,1.67
2022-12-27T23:57:45.628Z,1.68
